sensor_id;sensor_type;location;lat;lon;timestamp;temperature;humidity
8711;DHT22;4392;47.400;8.062;2023-07-13T00:01:54;24.30;99.90
8711;DHT22;4392;47.400;8.062;2023-07-13T00:04:24;24.20;99.90
8711;DHT22;4392;47.400;8.062;2023-07-13T00:06:51;24.10;99.90
8711;DHT22;4392;47.400;8.062;2023-07-13T00:09:18;24.00;99.90
8711;DHT22;4392;47.400;8.062;2023-07-13T00:11:51;24.00;99.90
8711;DHT22;4392;47.400;8.062;2023-07-13T00:14:17;24.00;99.90
8711;DHT22;4392;47.400;8.062;2023-07-13T00:16:43;23.90;99.90
8711;DHT22;4392;47.400;8.062;2023-07-13T00:19:12;23.90;99.90
8711;DHT22;4392;47.400;8.062;2023-07-13T00:21:41;23.80;99.90
8711;DHT22;4392;47.400;8.062;2023-07-13T00:24:11;23.80;99.90
8711;DHT22;4392;47.400;8.062;2023-07-13T00:26:41;23.80;99.90
8711;DHT22;4392;47.400;8.062;2023-07-13T00:29:10;23.70;99.90
8711;DHT22;4392;47.400;8.062;2023-07-13T00:31:38;23.60;99.90
8711;DHT22;4392;47.400;8.062;2023-07-13T00:34:04;23.60;99.90
8711;DHT22;4392;47.400;8.062;2023-07-13T00:36:32;23.50;99.90
8711;DHT22;4392;47.400;8.062;2023-07-13T00:38:58;23.50;99.90
8711;DHT22;4392;47.400;8.062;2023-07-13T00:41:24;23.50;99.90
8711;DHT22;4392;47.400;8.062;2023-07-13T00:43:51;23.50;99.90
8711;DHT22;4392;47.400;8.062;2023-07-13T00:46:33;23.50;99.90
8711;DHT22;4392;47.400;8.062;2023-07-13T00:49:05;23.30;99.90
8711;DHT22;4392;47.400;8.062;2023-07-13T00:51:44;23.20;99.90
8711;DHT22;4392;47.400;8.062;2023-07-13T00:54:32;23.10;99.90
8711;DHT22;4392;47.400;8.062;2023-07-13T00:57:02;23.00;99.90
8711;DHT22;4392;47.400;8.062;2023-07-13T00:59:32;23.00;99.90
8711;DHT22;4392;47.400;8.062;2023-07-13T01:01:59;22.90;99.90
8711;DHT22;4392;47.400;8.062;2023-07-13T01:04:25;22.90;99.90
8711;DHT22;4392;47.400;8.062;2023-07-13T01:06:55;22.90;99.90
8711;DHT22;4392;47.400;8.062;2023-07-13T01:09:21;22.90;99.90
8711;DHT22;4392;47.400;8.062;2023-07-13T01:11:47;22.90;99.90
8711;DHT22;4392;47.400;8.062;2023-07-13T01:14:14;22.90;99.90
8711;DHT22;4392;47.400;8.062;2023-07-13T01:16:42;22.90;99.90
8711;DHT22;4392;47.400;8.062;2023-07-13T01:19:36;22.90;99.90
8711;DHT22;4392;47.400;8.062;2023-07-13T01:22:18;22.70;99.90
8711;DHT22;4392;47.400;8.062;2023-07-13T01:24:47;22.60;99.90
8711;DHT22;4392;47.400;8.062;2023-07-13T01:27:15;22.60;99.90
8711;DHT22;4392;47.400;8.062;2023-07-13T01:29:47;22.60;99.90
8711;DHT22;4392;47.400;8.062;2023-07-13T01:32:17;22.70;99.90
8711;DHT22;4392;47.400;8.062;2023-07-13T01:34:48;22.60;99.90
8711;DHT22;4392;47.400;8.062;2023-07-13T01:37:14;22.60;99.90
8711;DHT22;4392;47.400;8.062;2023-07-13T01:39:47;22.50;99.90
8711;DHT22;4392;47.400;8.062;2023-07-13T01:42:14;22.40;99.90
8711;DHT22;4392;47.400;8.062;2023-07-13T01:44:46;22.40;99.90
8711;DHT22;4392;47.400;8.062;2023-07-13T01:47:12;22.40;99.90
8711;DHT22;4392;47.400;8.062;2023-07-13T01:49:38;22.40;99.90
8711;DHT22;4392;47.400;8.062;2023-07-13T01:52:04;22.40;99.90
8711;DHT22;4392;47.400;8.062;2023-07-13T01:54:30;22.40;99.90
8711;DHT22;4392;47.400;8.062;2023-07-13T01:56:55;22.30;99.90
8711;DHT22;4392;47.400;8.062;2023-07-13T01:59:21;22.20;99.90
8711;DHT22;4392;47.400;8.062;2023-07-13T02:01:50;22.30;99.90
8711;DHT22;4392;47.400;8.062;2023-07-13T02:04:15;22.30;99.90
8711;DHT22;4392;47.400;8.062;2023-07-13T02:06:41;22.40;99.90
8711;DHT22;4392;47.400;8.062;2023-07-13T02:09:07;22.60;99.90
8711;DHT22;4392;47.400;8.062;2023-07-13T02:11:33;22.60;99.90
8711;DHT22;4392;47.400;8.062;2023-07-13T02:14:02;22.50;99.90
8711;DHT22;4392;47.400;8.062;2023-07-13T02:16:29;22.50;99.90
8711;DHT22;4392;47.400;8.062;2023-07-13T02:18:55;22.40;99.90
8711;DHT22;4392;47.400;8.062;2023-07-13T02:21:22;22.50;99.90
8711;DHT22;4392;47.400;8.062;2023-07-13T02:23:52;22.60;99.90
8711;DHT22;4392;47.400;8.062;2023-07-13T02:26:20;22.60;99.90
8711;DHT22;4392;47.400;8.062;2023-07-13T02:28:46;22.60;99.90
8711;DHT22;4392;47.400;8.062;2023-07-13T02:31:13;22.60;99.90
8711;DHT22;4392;47.400;8.062;2023-07-13T02:33:45;22.50;99.90
8711;DHT22;4392;47.400;8.062;2023-07-13T02:36:17;22.50;99.90
8711;DHT22;4392;47.400;8.062;2023-07-13T02:38:44;22.40;99.90
8711;DHT22;4392;47.400;8.062;2023-07-13T02:41:10;22.40;99.90
8711;DHT22;4392;47.400;8.062;2023-07-13T02:43:43;22.30;99.90
8711;DHT22;4392;47.400;8.062;2023-07-13T02:46:09;22.30;99.90
8711;DHT22;4392;47.400;8.062;2023-07-13T02:48:38;22.30;99.90
8711;DHT22;4392;47.400;8.062;2023-07-13T02:51:20;22.20;99.90
8711;DHT22;4392;47.400;8.062;2023-07-13T02:53:46;22.30;99.90
8711;DHT22;4392;47.400;8.062;2023-07-13T02:56:12;22.30;99.90
8711;DHT22;4392;47.400;8.062;2023-07-13T02:58:42;22.30;99.90
8711;DHT22;4392;47.400;8.062;2023-07-13T03:01:10;22.30;99.90
8711;DHT22;4392;47.400;8.062;2023-07-13T03:03:43;22.20;99.90
8711;DHT22;4392;47.400;8.062;2023-07-13T03:06:09;22.20;99.90
8711;DHT22;4392;47.400;8.062;2023-07-13T03:08:35;22.20;99.90
8711;DHT22;4392;47.400;8.062;2023-07-13T03:11:07;22.10;99.90
8711;DHT22;4392;47.400;8.062;2023-07-13T03:13:34;22.00;99.90
8711;DHT22;4392;47.400;8.062;2023-07-13T03:16:00;22.00;99.90
8711;DHT22;4392;47.400;8.062;2023-07-13T03:18:31;21.90;99.90
8711;DHT22;4392;47.400;8.062;2023-07-13T03:24:05;21.70;99.90
8711;DHT22;4392;47.400;8.062;2023-07-13T03:26:33;21.60;99.90
8711;DHT22;4392;47.400;8.062;2023-07-13T03:29:05;21.60;99.90
8711;DHT22;4392;47.400;8.062;2023-07-13T03:31:37;21.70;99.90
8711;DHT22;4392;47.400;8.062;2023-07-13T03:34:05;21.60;99.90
8711;DHT22;4392;47.400;8.062;2023-07-13T03:36:31;21.60;99.90
8711;DHT22;4392;47.400;8.062;2023-07-13T03:39:02;21.60;99.90
8711;DHT22;4392;47.400;8.062;2023-07-13T03:41:28;21.60;99.90
8711;DHT22;4392;47.400;8.062;2023-07-13T03:43:58;21.50;99.90
8711;DHT22;4392;47.400;8.062;2023-07-13T03:46:26;21.60;99.90
8711;DHT22;4392;47.400;8.062;2023-07-13T03:48:57;21.50;99.90
8711;DHT22;4392;47.400;8.062;2023-07-13T03:51:23;21.60;99.90
8711;DHT22;4392;47.400;8.062;2023-07-13T03:53:49;21.60;99.90
8711;DHT22;4392;47.400;8.062;2023-07-13T03:56:19;21.70;99.90
8711;DHT22;4392;47.400;8.062;2023-07-13T03:58:50;21.80;99.90
8711;DHT22;4392;47.400;8.062;2023-07-13T04:01:20;21.70;99.90
8711;DHT22;4392;47.400;8.062;2023-07-13T04:03:47;21.70;99.90
8711;DHT22;4392;47.400;8.062;2023-07-13T04:06:23;21.70;99.90
8711;DHT22;4392;47.400;8.062;2023-07-13T04:08:56;21.70;99.90
8711;DHT22;4392;47.400;8.062;2023-07-13T04:11:25;21.50;99.90
8711;DHT22;4392;47.400;8.062;2023-07-13T04:13:54;21.50;99.90
8711;DHT22;4392;47.400;8.062;2023-07-13T04:16:20;21.50;99.90
8711;DHT22;4392;47.400;8.062;2023-07-13T04:18:47;21.50;99.90
8711;DHT22;4392;47.400;8.062;2023-07-13T04:21:14;21.50;99.90
8711;DHT22;4392;47.400;8.062;2023-07-13T04:23:46;21.50;99.90
8711;DHT22;4392;47.400;8.062;2023-07-13T04:26:12;21.50;99.90
8711;DHT22;4392;47.400;8.062;2023-07-13T04:28:38;21.50;99.90
8711;DHT22;4392;47.400;8.062;2023-07-13T04:31:04;21.50;99.90
8711;DHT22;4392;47.400;8.062;2023-07-13T04:33:30;21.60;99.90
8711;DHT22;4392;47.400;8.062;2023-07-13T04:35:59;21.50;99.90
8711;DHT22;4392;47.400;8.062;2023-07-13T04:38:29;21.40;99.90
8711;DHT22;4392;47.400;8.062;2023-07-13T04:41:02;21.40;99.90
8711;DHT22;4392;47.400;8.062;2023-07-13T04:43:34;21.30;99.90
8711;DHT22;4392;47.400;8.062;2023-07-13T04:46:06;21.20;99.90
8711;DHT22;4392;47.400;8.062;2023-07-13T04:48:33;21.20;99.90
8711;DHT22;4392;47.400;8.062;2023-07-13T04:51:01;21.10;99.90
8711;DHT22;4392;47.400;8.062;2023-07-13T04:53:27;21.20;99.90
8711;DHT22;4392;47.400;8.062;2023-07-13T04:55:53;21.30;99.90
8711;DHT22;4392;47.400;8.062;2023-07-13T04:58:24;21.40;99.90
8711;DHT22;4392;47.400;8.062;2023-07-13T05:00:51;21.50;99.90
8711;DHT22;4392;47.400;8.062;2023-07-13T05:03:25;21.50;99.90
8711;DHT22;4392;47.400;8.062;2023-07-13T05:06:02;21.40;99.90
8711;DHT22;4392;47.400;8.062;2023-07-13T05:08:35;21.40;99.90
8711;DHT22;4392;47.400;8.062;2023-07-13T05:11:02;21.40;99.90
8711;DHT22;4392;47.400;8.062;2023-07-13T05:13:29;21.50;99.90
8711;DHT22;4392;47.400;8.062;2023-07-13T05:16:01;21.50;99.90
8711;DHT22;4392;47.400;8.062;2023-07-13T05:18:28;21.40;99.90
8711;DHT22;4392;47.400;8.062;2023-07-13T05:21:06;21.30;99.90
8711;DHT22;4392;47.400;8.062;2023-07-13T05:23:39;21.40;99.90
8711;DHT22;4392;47.400;8.062;2023-07-13T05:26:12;21.40;99.90
8711;DHT22;4392;47.400;8.062;2023-07-13T05:28:38;21.30;99.90
8711;DHT22;4392;47.400;8.062;2023-07-13T05:31:07;21.40;99.90
8711;DHT22;4392;47.400;8.062;2023-07-13T05:33:39;21.50;99.90
8711;DHT22;4392;47.400;8.062;2023-07-13T05:36:05;21.50;99.90
8711;DHT22;4392;47.400;8.062;2023-07-13T05:38:38;21.60;99.90
8711;DHT22;4392;47.400;8.062;2023-07-13T05:41:04;21.60;99.90
8711;DHT22;4392;47.400;8.062;2023-07-13T05:43:30;21.50;99.90
8711;DHT22;4392;47.400;8.062;2023-07-13T05:46:00;21.50;99.90
8711;DHT22;4392;47.400;8.062;2023-07-13T05:48:25;21.60;99.90
8711;DHT22;4392;47.400;8.062;2023-07-13T05:50:53;21.60;99.90
8711;DHT22;4392;47.400;8.062;2023-07-13T05:53:19;21.60;99.90
8711;DHT22;4392;47.400;8.062;2023-07-13T05:55:50;21.60;99.90
8711;DHT22;4392;47.400;8.062;2023-07-13T05:58:20;21.60;99.90
8711;DHT22;4392;47.400;8.062;2023-07-13T06:00:47;21.60;99.90
8711;DHT22;4392;47.400;8.062;2023-07-13T06:03:15;21.60;99.90
8711;DHT22;4392;47.400;8.062;2023-07-13T06:05:41;21.60;99.90
8711;DHT22;4392;47.400;8.062;2023-07-13T06:08:07;21.60;99.90
8711;DHT22;4392;47.400;8.062;2023-07-13T06:10:34;21.70;99.90
8711;DHT22;4392;47.400;8.062;2023-07-13T06:13:06;21.70;99.90
8711;DHT22;4392;47.400;8.062;2023-07-13T06:15:32;21.70;99.90
8711;DHT22;4392;47.400;8.062;2023-07-13T06:18:06;21.70;99.90
8711;DHT22;4392;47.400;8.062;2023-07-13T06:20:34;21.70;99.90
8711;DHT22;4392;47.400;8.062;2023-07-13T06:23:05;21.70;99.90
8711;DHT22;4392;47.400;8.062;2023-07-13T06:25:33;21.70;99.90
8711;DHT22;4392;47.400;8.062;2023-07-13T06:27:59;21.70;99.90
8711;DHT22;4392;47.400;8.062;2023-07-13T06:30:27;21.70;99.90
8711;DHT22;4392;47.400;8.062;2023-07-13T06:32:54;21.70;99.90
8711;DHT22;4392;47.400;8.062;2023-07-13T06:35:25;21.70;99.90
8711;DHT22;4392;47.400;8.062;2023-07-13T06:37:51;21.70;99.90
8711;DHT22;4392;47.400;8.062;2023-07-13T06:40:17;21.80;99.90
8711;DHT22;4392;47.400;8.062;2023-07-13T06:42:42;21.70;99.90
8711;DHT22;4392;47.400;8.062;2023-07-13T06:45:11;21.70;99.90
8711;DHT22;4392;47.400;8.062;2023-07-13T06:47:40;21.60;99.90
8711;DHT22;4392;47.400;8.062;2023-07-13T06:50:07;21.50;99.90
8711;DHT22;4392;47.400;8.062;2023-07-13T06:52:33;21.30;99.90
8711;DHT22;4392;47.400;8.062;2023-07-13T06:55:07;21.50;99.90
8711;DHT22;4392;47.400;8.062;2023-07-13T06:57:33;21.60;99.90
8711;DHT22;4392;47.400;8.062;2023-07-13T06:59:59;21.70;99.90
8711;DHT22;4392;47.400;8.062;2023-07-13T07:02:27;21.80;99.90
8711;DHT22;4392;47.400;8.062;2023-07-13T07:04:55;21.80;99.90
8711;DHT22;4392;47.400;8.062;2023-07-13T07:07:24;21.90;99.90
8711;DHT22;4392;47.400;8.062;2023-07-13T07:09:55;21.70;99.90
8711;DHT22;4392;47.400;8.062;2023-07-13T07:12:21;21.80;99.90
8711;DHT22;4392;47.400;8.062;2023-07-13T07:14:47;21.70;99.90
8711;DHT22;4392;47.400;8.062;2023-07-13T07:17:16;21.70;99.90
8711;DHT22;4392;47.400;8.062;2023-07-13T07:19:47;21.80;99.90
8711;DHT22;4392;47.400;8.062;2023-07-13T07:22:15;21.90;99.90
8711;DHT22;4392;47.400;8.062;2023-07-13T07:24:46;21.90;99.90
8711;DHT22;4392;47.400;8.062;2023-07-13T07:27:12;22.00;99.90
8711;DHT22;4392;47.400;8.062;2023-07-13T07:29:37;22.00;99.90
8711;DHT22;4392;47.400;8.062;2023-07-13T07:32:07;22.00;99.90
8711;DHT22;4392;47.400;8.062;2023-07-13T07:34:32;22.00;99.90
8711;DHT22;4392;47.400;8.062;2023-07-13T07:37:02;22.10;99.90
8711;DHT22;4392;47.400;8.062;2023-07-13T07:39:28;22.10;99.90
8711;DHT22;4392;47.400;8.062;2023-07-13T07:41:55;22.10;99.90
8711;DHT22;4392;47.400;8.062;2023-07-13T07:44:24;22.20;99.90
8711;DHT22;4392;47.400;8.062;2023-07-13T07:46:53;22.20;99.90
8711;DHT22;4392;47.400;8.062;2023-07-13T07:49:20;22.20;99.90
8711;DHT22;4392;47.400;8.062;2023-07-13T07:51:46;22.20;99.90
8711;DHT22;4392;47.400;8.062;2023-07-13T07:54:17;22.20;99.90
8711;DHT22;4392;47.400;8.062;2023-07-13T07:56:43;22.20;99.90
8711;DHT22;4392;47.400;8.062;2023-07-13T07:59:12;22.30;99.90
8711;DHT22;4392;47.400;8.062;2023-07-13T08:01:43;22.30;99.90
8711;DHT22;4392;47.400;8.062;2023-07-13T08:04:11;22.30;99.90
8711;DHT22;4392;47.400;8.062;2023-07-13T08:06:41;22.30;99.90
8711;DHT22;4392;47.400;8.062;2023-07-13T08:09:09;22.30;99.90
8711;DHT22;4392;47.400;8.062;2023-07-13T08:11:35;22.30;99.90
8711;DHT22;4392;47.400;8.062;2023-07-13T08:14:07;22.30;99.90
8711;DHT22;4392;47.400;8.062;2023-07-13T08:16:34;22.40;99.90
8711;DHT22;4392;47.400;8.062;2023-07-13T08:19:00;22.40;99.90
8711;DHT22;4392;47.400;8.062;2023-07-13T08:21:26;22.50;99.90
8711;DHT22;4392;47.400;8.062;2023-07-13T08:23:55;22.40;99.90
8711;DHT22;4392;47.400;8.062;2023-07-13T08:26:23;22.20;99.90
8711;DHT22;4392;47.400;8.062;2023-07-13T08:28:49;22.30;99.90
8711;DHT22;4392;47.400;8.062;2023-07-13T08:31:18;22.50;99.90
8711;DHT22;4392;47.400;8.062;2023-07-13T08:33:43;22.50;99.90
8711;DHT22;4392;47.400;8.062;2023-07-13T08:36:09;22.50;99.90
8711;DHT22;4392;47.400;8.062;2023-07-13T08:38:35;22.60;99.90
8711;DHT22;4392;47.400;8.062;2023-07-13T08:43:38;22.60;99.90
8711;DHT22;4392;47.400;8.062;2023-07-13T08:46:37;22.60;99.90
8711;DHT22;4392;47.400;8.062;2023-07-13T08:49:19;22.60;99.90
8711;DHT22;4392;47.400;8.062;2023-07-13T08:51:53;22.60;99.90
8711;DHT22;4392;47.400;8.062;2023-07-13T08:57:14;22.80;99.90
8711;DHT22;4392;47.400;8.062;2023-07-13T08:59:44;22.80;99.90
8711;DHT22;4392;47.400;8.062;2023-07-13T09:02:33;22.90;99.90
8711;DHT22;4392;47.400;8.062;2023-07-13T09:05:26;22.90;99.90
8711;DHT22;4392;47.400;8.062;2023-07-13T09:10:57;22.80;99.90
8711;DHT22;4392;47.400;8.062;2023-07-13T09:15:57;22.80;99.90
8711;DHT22;4392;47.400;8.062;2023-07-13T09:18:35;22.80;99.90
8711;DHT22;4392;47.400;8.062;2023-07-13T09:21:17;23.00;99.90
8711;DHT22;4392;47.400;8.062;2023-07-13T09:23:47;23.10;99.90
8711;DHT22;4392;47.400;8.062;2023-07-13T09:26:26;23.30;99.90
8711;DHT22;4392;47.400;8.062;2023-07-13T09:29:03;23.30;99.90
8711;DHT22;4392;47.400;8.062;2023-07-13T09:31:43;23.40;99.90
8711;DHT22;4392;47.400;8.062;2023-07-13T09:34:14;23.50;99.90
8711;DHT22;4392;47.400;8.062;2023-07-13T09:36:43;23.50;99.90
8711;DHT22;4392;47.400;8.062;2023-07-13T09:39:26;23.50;99.90
8711;DHT22;4392;47.400;8.062;2023-07-13T09:44:35;23.40;99.90
8711;DHT22;4392;47.400;8.062;2023-07-13T09:47:19;23.40;97.90
8711;DHT22;4392;47.400;8.062;2023-07-13T09:50:16;23.40;95.10
8711;DHT22;4392;47.400;8.062;2023-07-13T09:52:49;23.40;93.40
8711;DHT22;4392;47.400;8.062;2023-07-13T09:55:37;23.40;93.40
8711;DHT22;4392;47.400;8.062;2023-07-13T09:58:25;23.50;94.10
8711;DHT22;4392;47.400;8.062;2023-07-13T10:01:00;23.70;98.70
8711;DHT22;4392;47.400;8.062;2023-07-13T10:03:29;23.60;91.90
8711;DHT22;4392;47.400;8.062;2023-07-13T10:06:17;23.60;91.70
8711;DHT22;4392;47.400;8.062;2023-07-13T10:08:50;23.80;93.30
8711;DHT22;4392;47.400;8.062;2023-07-13T10:11:29;23.80;92.30
8711;DHT22;4392;47.400;8.062;2023-07-13T10:14:12;23.80;91.90
8711;DHT22;4392;47.400;8.062;2023-07-13T10:16:39;23.70;92.20
8711;DHT22;4392;47.400;8.062;2023-07-13T10:19:22;23.90;98.60
8711;DHT22;4392;47.400;8.062;2023-07-13T10:24:41;24.20;99.90
8711;DHT22;4392;47.400;8.062;2023-07-13T10:27:51;24.10;92.90
8711;DHT22;4392;47.400;8.062;2023-07-13T10:32:48;23.80;91.60
8711;DHT22;4392;47.400;8.062;2023-07-13T10:35:19;24.00;97.10
8711;DHT22;4392;47.400;8.062;2023-07-13T10:38:22;24.20;95.30
8711;DHT22;4392;47.400;8.062;2023-07-13T10:41:10;24.30;95.90
8711;DHT22;4392;47.400;8.062;2023-07-13T10:43:44;24.40;94.80
8711;DHT22;4392;47.400;8.062;2023-07-13T10:46:18;24.50;92.20
8711;DHT22;4392;47.400;8.062;2023-07-13T10:48:51;24.40;92.60
8711;DHT22;4392;47.400;8.062;2023-07-13T10:51:21;24.50;93.50
8711;DHT22;4392;47.400;8.062;2023-07-13T10:54:34;24.60;92.20
8711;DHT22;4392;47.400;8.062;2023-07-13T10:57:19;24.60;89.40
8711;DHT22;4392;47.400;8.062;2023-07-13T11:00:14;24.60;91.30
8711;DHT22;4392;47.400;8.062;2023-07-13T11:02:56;24.70;90.50
8711;DHT22;4392;47.400;8.062;2023-07-13T11:05:31;24.50;88.20
8711;DHT22;4392;47.400;8.062;2023-07-13T11:08:32;24.50;91.20
8711;DHT22;4392;47.400;8.062;2023-07-13T11:10:58;24.60;86.30
8711;DHT22;4392;47.400;8.062;2023-07-13T11:16:33;24.50;89.10
8711;DHT22;4392;47.400;8.062;2023-07-13T11:21:29;24.40;81.90
8711;DHT22;4392;47.400;8.062;2023-07-13T11:24:18;24.50;83.80
8711;DHT22;4392;47.400;8.062;2023-07-13T11:31:59;24.40;85.10
8711;DHT22;4392;47.400;8.062;2023-07-13T11:34:40;24.30;84.90
8711;DHT22;4392;47.400;8.062;2023-07-13T11:37:12;24.40;85.10
8711;DHT22;4392;47.400;8.062;2023-07-13T11:39:46;24.30;82.30
8711;DHT22;4392;47.400;8.062;2023-07-13T11:42:21;24.20;85.30
8711;DHT22;4392;47.400;8.062;2023-07-13T11:44:49;24.20;84.60
8711;DHT22;4392;47.400;8.062;2023-07-13T11:47:23;24.40;84.50
8711;DHT22;4392;47.400;8.062;2023-07-13T11:49:56;24.40;83.30
8711;DHT22;4392;47.400;8.062;2023-07-13T11:52:35;24.40;80.60
8711;DHT22;4392;47.400;8.062;2023-07-13T11:55:17;24.20;79.90
8711;DHT22;4392;47.400;8.062;2023-07-13T11:57:58;24.30;81.00
8711;DHT22;4392;47.400;8.062;2023-07-13T12:00:29;24.40;80.80
8711;DHT22;4392;47.400;8.062;2023-07-13T12:03:01;24.40;81.90
8711;DHT22;4392;47.400;8.062;2023-07-13T12:05:35;24.40;82.20
8711;DHT22;4392;47.400;8.062;2023-07-13T12:08:11;24.40;80.60
8711;DHT22;4392;47.400;8.062;2023-07-13T12:10:36;24.50;80.60
8711;DHT22;4392;47.400;8.062;2023-07-13T12:13:05;24.60;81.60
8711;DHT22;4392;47.400;8.062;2023-07-13T12:15:41;24.50;82.40
8711;DHT22;4392;47.400;8.062;2023-07-13T12:18:22;24.40;82.20
8711;DHT22;4392;47.400;8.062;2023-07-13T12:20:50;24.60;83.00
8711;DHT22;4392;47.400;8.062;2023-07-13T12:23:29;24.60;80.50
8711;DHT22;4392;47.400;8.062;2023-07-13T12:26:11;24.60;81.90
8711;DHT22;4392;47.400;8.062;2023-07-13T12:28:51;24.60;83.80
8711;DHT22;4392;47.400;8.062;2023-07-13T12:36:29;24.90;82.00
8711;DHT22;4392;47.400;8.062;2023-07-13T12:39:13;24.70;78.80
8711;DHT22;4392;47.400;8.062;2023-07-13T12:41:40;24.60;77.40
8711;DHT22;4392;47.400;8.062;2023-07-13T12:44:15;24.50;75.80
8711;DHT22;4392;47.400;8.062;2023-07-13T12:46:53;24.60;74.40
8711;DHT22;4392;47.400;8.062;2023-07-13T12:49:29;24.80;75.60
8711;DHT22;4392;47.400;8.062;2023-07-13T12:52:00;24.90;74.40
8711;DHT22;4392;47.400;8.062;2023-07-13T12:54:28;25.10;72.50
8711;DHT22;4392;47.400;8.062;2023-07-13T12:56:56;25.10;72.50
8711;DHT22;4392;47.400;8.062;2023-07-13T12:59:27;25.10;71.60
8711;DHT22;4392;47.400;8.062;2023-07-13T13:01:56;25.00;72.20
8711;DHT22;4392;47.400;8.062;2023-07-13T13:04:22;24.80;68.70
8711;DHT22;4392;47.400;8.062;2023-07-13T13:06:49;24.70;68.30
8711;DHT22;4392;47.400;8.062;2023-07-13T13:09:25;24.60;68.70
8711;DHT22;4392;47.400;8.062;2023-07-13T13:11:51;24.70;67.30
8711;DHT22;4392;47.400;8.062;2023-07-13T13:14:23;25.00;68.00
8711;DHT22;4392;47.400;8.062;2023-07-13T13:16:56;25.20;68.90
8711;DHT22;4392;47.400;8.062;2023-07-13T13:19:27;25.30;66.90
8711;DHT22;4392;47.400;8.062;2023-07-13T13:22:00;25.50;67.10
8711;DHT22;4392;47.400;8.062;2023-07-13T13:24:27;25.50;65.90
8711;DHT22;4392;47.400;8.062;2023-07-13T13:26:54;25.60;63.20
8711;DHT22;4392;47.400;8.062;2023-07-13T13:29:23;25.70;63.50
8711;DHT22;4392;47.400;8.062;2023-07-13T13:31:50;25.80;62.60
8711;DHT22;4392;47.400;8.062;2023-07-13T13:34:17;25.90;62.50
8711;DHT22;4392;47.400;8.062;2023-07-13T13:36:46;25.90;62.90
8711;DHT22;4392;47.400;8.062;2023-07-13T13:39:28;25.90;62.40
8711;DHT22;4392;47.400;8.062;2023-07-13T13:41:58;25.90;59.80
8711;DHT22;4392;47.400;8.062;2023-07-13T13:44:25;25.90;59.30
8711;DHT22;4392;47.400;8.062;2023-07-13T13:46:55;25.60;60.90
8711;DHT22;4392;47.400;8.062;2023-07-13T13:49:26;25.20;60.00
8711;DHT22;4392;47.400;8.062;2023-07-13T13:51:53;25.20;61.10
8711;DHT22;4392;47.400;8.062;2023-07-13T13:54:25;25.10;60.00
8711;DHT22;4392;47.400;8.062;2023-07-13T13:56:52;25.30;60.10
8711;DHT22;4392;47.400;8.062;2023-07-13T13:59:18;25.40;61.00
8711;DHT22;4392;47.400;8.062;2023-07-13T14:01:47;25.60;59.70
8711;DHT22;4392;47.400;8.062;2023-07-13T14:04:23;25.80;58.40
8711;DHT22;4392;47.400;8.062;2023-07-13T14:06:49;26.00;59.20
8711;DHT22;4392;47.400;8.062;2023-07-13T14:09:17;26.30;58.30
8711;DHT22;4392;47.400;8.062;2023-07-13T14:11:48;26.10;58.50
8711;DHT22;4392;47.400;8.062;2023-07-13T14:14:17;26.10;58.60
8711;DHT22;4392;47.400;8.062;2023-07-13T14:16:45;25.60;57.20
8711;DHT22;4392;47.400;8.062;2023-07-13T14:19:12;25.20;57.20
8711;DHT22;4392;47.400;8.062;2023-07-13T14:21:39;25.00;58.30
8711;DHT22;4392;47.400;8.062;2023-07-13T14:24:17;24.90;58.50
8711;DHT22;4392;47.400;8.062;2023-07-13T14:26:42;25.00;58.30
8711;DHT22;4392;47.400;8.062;2023-07-13T14:29:19;25.10;57.60
8711;DHT22;4392;47.400;8.062;2023-07-13T14:31:45;25.20;57.60
8711;DHT22;4392;47.400;8.062;2023-07-13T14:34:15;25.30;58.20
8711;DHT22;4392;47.400;8.062;2023-07-13T14:36:47;25.40;58.20
8711;DHT22;4392;47.400;8.062;2023-07-13T14:39:19;25.30;58.30
8711;DHT22;4392;47.400;8.062;2023-07-13T14:41:49;25.30;59.90
8711;DHT22;4392;47.400;8.062;2023-07-13T14:44:20;25.20;58.60
8711;DHT22;4392;47.400;8.062;2023-07-13T14:46:49;25.20;59.50
8711;DHT22;4392;47.400;8.062;2023-07-13T14:49:30;25.00;58.30
8711;DHT22;4392;47.400;8.062;2023-07-13T14:54:48;25.20;59.00
8711;DHT22;4392;47.400;8.062;2023-07-13T14:57:19;24.90;58.20
8711;DHT22;4392;47.400;8.062;2023-07-13T14:59:51;24.90;57.30
8711;DHT22;4392;47.400;8.062;2023-07-13T15:02:35;25.10;56.40
8711;DHT22;4392;47.400;8.062;2023-07-13T15:05:12;25.50;57.10
8711;DHT22;4392;47.400;8.062;2023-07-13T15:07:38;25.80;56.00
8711;DHT22;4392;47.400;8.062;2023-07-13T15:10:26;25.70;60.90
8711;DHT22;4392;47.400;8.062;2023-07-13T15:12:52;25.90;60.00
8711;DHT22;4392;47.400;8.062;2023-07-13T15:15:21;26.20;56.00
8711;DHT22;4392;47.400;8.062;2023-07-13T15:17:53;26.40;54.30
8711;DHT22;4392;47.400;8.062;2023-07-13T15:20:24;26.60;53.20
8711;DHT22;4392;47.400;8.062;2023-07-13T15:22:51;26.90;54.10
8711;DHT22;4392;47.400;8.062;2023-07-13T15:25:19;27.20;52.80
8711;DHT22;4392;47.400;8.062;2023-07-13T15:27:45;27.10;52.30
8711;DHT22;4392;47.400;8.062;2023-07-13T15:30:15;27.20;51.80
8711;DHT22;4392;47.400;8.062;2023-07-13T15:32:42;27.40;52.50
8711;DHT22;4392;47.400;8.062;2023-07-13T15:35:24;27.40;52.70
8711;DHT22;4392;47.400;8.062;2023-07-13T15:37:52;27.40;51.40
8711;DHT22;4392;47.400;8.062;2023-07-13T15:40:19;27.50;51.80
8711;DHT22;4392;47.400;8.062;2023-07-13T15:42:52;27.50;51.60
8711;DHT22;4392;47.400;8.062;2023-07-13T15:47:44;27.30;49.50
8711;DHT22;4392;47.400;8.062;2023-07-13T15:50:21;27.40;50.00
8711;DHT22;4392;47.400;8.062;2023-07-13T15:52:52;27.40;50.30
8711;DHT22;4392;47.400;8.062;2023-07-13T15:55:19;27.60;49.90
8711;DHT22;4392;47.400;8.062;2023-07-13T15:57:52;27.80;49.90
8711;DHT22;4392;47.400;8.062;2023-07-13T16:00:24;27.80;49.90
8711;DHT22;4392;47.400;8.062;2023-07-13T16:02:51;27.90;48.90
8711;DHT22;4392;47.400;8.062;2023-07-13T16:05:21;27.90;48.90
8711;DHT22;4392;47.400;8.062;2023-07-13T16:07:50;27.60;47.70
8711;DHT22;4392;47.400;8.062;2023-07-13T16:10:27;27.80;48.50
8711;DHT22;4392;47.400;8.062;2023-07-13T16:12:58;28.20;47.00
8711;DHT22;4392;47.400;8.062;2023-07-13T16:15:25;27.90;47.10
8711;DHT22;4392;47.400;8.062;2023-07-13T16:17:51;28.00;47.20
8711;DHT22;4392;47.400;8.062;2023-07-13T16:20:18;28.10;47.10
8711;DHT22;4392;47.400;8.062;2023-07-13T16:22:52;28.10;46.80
8711;DHT22;4392;47.400;8.062;2023-07-13T16:25:27;28.30;45.20
8711;DHT22;4392;47.400;8.062;2023-07-13T16:27:58;28.40;45.60
8711;DHT22;4392;47.400;8.062;2023-07-13T16:30:30;28.50;46.00
8711;DHT22;4392;47.400;8.062;2023-07-13T16:33:01;28.40;45.60
8711;DHT22;4392;47.400;8.062;2023-07-13T16:35:51;28.40;44.60
8711;DHT22;4392;47.400;8.062;2023-07-13T16:38:22;28.60;45.10
8711;DHT22;4392;47.400;8.062;2023-07-13T16:40:54;28.50;45.60
8711;DHT22;4392;47.400;8.062;2023-07-13T16:43:23;28.50;45.40
8711;DHT22;4392;47.400;8.062;2023-07-13T16:45:50;28.30;45.10
8711;DHT22;4392;47.400;8.062;2023-07-13T16:48:22;28.40;45.30
8711;DHT22;4392;47.400;8.062;2023-07-13T16:50:54;28.40;45.20
8711;DHT22;4392;47.400;8.062;2023-07-13T16:53:25;28.70;45.20
8711;DHT22;4392;47.400;8.062;2023-07-13T16:55:52;28.60;44.80
8711;DHT22;4392;47.400;8.062;2023-07-13T16:58:27;28.60;45.10
8711;DHT22;4392;47.400;8.062;2023-07-13T17:01:00;28.60;45.20
8711;DHT22;4392;47.400;8.062;2023-07-13T17:03:29;28.50;45.00
8711;DHT22;4392;47.400;8.062;2023-07-13T17:05:58;28.60;44.80
8711;DHT22;4392;47.400;8.062;2023-07-13T17:08:28;28.50;44.50
8711;DHT22;4392;47.400;8.062;2023-07-13T17:11:00;28.20;45.20